createdAt,value
2022-12-28T00:00:34.330Z,5.2
2022-12-28T00:01:34.163Z,4.7
2022-12-28T00:02:34.728Z,4.7
2022-12-28T00:03:35.051Z,4.9
2022-12-28T00:04:34.383Z,4.9
2022-12-28T00:05:34.095Z,5.5
2022-12-28T00:06:34.836Z,4.8
2022-12-28T00:07:34.203Z,5.4
2022-12-28T00:08:34.000Z,4.8
2022-12-28T00:09:34.737Z,5.4
2022-12-28T00:11:08.799Z,6.3
2022-12-28T00:11:34.352Z,5.1
2022-12-28T00:12:34.172Z,5.4
2022-12-28T00:13:34.803Z,4.7
2022-12-28T00:14:34.755Z,5.0
2022-12-28T00:15:35.782Z,4.5
2022-12-28T00:16:35.661Z,5.2
2022-12-28T00:17:34.003Z,4.7
2022-12-28T00:18:35.012Z,4.6
2022-12-28T00:19:34.550Z,5.4
2022-12-28T00:20:35.274Z,4.7
2022-12-28T00:21:34.207Z,4.7
2022-12-28T00:22:34.030Z,5.0
2022-12-28T00:23:34.697Z,4.8
2022-12-28T00:24:34.521Z,4.7
2022-12-28T00:25:35.744Z,5.0
2022-12-28T00:26:34.529Z,4.9
2022-12-28T00:27:33.955Z,5.4
2022-12-28T00:28:35.117Z,5.4
2022-12-28T00:29:34.511Z,5.6
2022-12-28T00:30:34.279Z,6.1
2022-12-28T00:31:35.069Z,5.2
2022-12-28T00:32:34.306Z,4.8
2022-12-28T00:33:34.199Z,4.6
2022-12-28T00:34:34.020Z,5.4
2022-12-28T00:35:34.635Z,4.6
2022-12-28T00:37:09.574Z,5.4
2022-12-28T00:37:34.270Z,5.0
2022-12-28T00:38:34.702Z,5.6
2022-12-28T00:39:34.846Z,4.6
2022-12-28T00:40:33.945Z,4.9
2022-12-28T00:41:33.980Z,4.8
2022-12-28T00:42:35.116Z,5.2
2022-12-28T00:43:34.580Z,5.0
2022-12-28T00:44:34.706Z,5.6
2022-12-28T00:45:34.057Z,4.7
2022-12-28T00:46:34.960Z,5.0
2022-12-28T00:47:34.582Z,5.7
2022-12-28T00:48:34.404Z,5.5
2022-12-28T00:49:34.194Z,4.5
2022-12-28T00:50:34.054Z,5.3
2022-12-28T00:51:34.693Z,4.7
2022-12-28T00:52:34.525Z,4.8
2022-12-28T00:53:35.226Z,5.3
2022-12-28T00:54:34.153Z,4.6
2022-12-28T00:55:34.084Z,3.9
2022-12-28T00:56:34.726Z,4.6
2022-12-28T00:57:34.525Z,4.1
2022-12-28T00:58:34.418Z,4.8
2022-12-28T00:59:34.926Z,4.8
2022-12-28T01:00:35.165Z,5.9
2022-12-28T01:01:34.551Z,4.7
2022-12-28T01:02:34.399Z,4.9
2022-12-28T01:03:34.180Z,4.7
2022-12-28T01:04:33.971Z,4.9
2022-12-28T01:05:37.245Z,5.1
2022-12-28T01:06:34.020Z,5.3
2022-12-28T01:07:34.259Z,5.5
2022-12-28T01:08:37.020Z,5.2
2022-12-28T01:09:34.896Z,5.2
2022-12-28T01:10:34.736Z,5.3
2022-12-28T01:11:34.568Z,5.0
2022-12-28T01:12:38.256Z,4.8
2022-12-28T01:13:34.248Z,5.0
2022-12-28T01:14:34.789Z,4.0
2022-12-28T01:15:34.520Z,5.2
2022-12-28T01:16:35.161Z,5.4
2022-12-28T01:17:34.101Z,5.5
2022-12-28T01:18:33.924Z,5.1
2022-12-28T01:19:34.595Z,5.2
2022-12-28T01:20:40.116Z,4.8
2022-12-28T01:21:34.735Z,5.3
2022-12-28T01:22:34.066Z,5.5
2022-12-28T01:23:34.760Z,4.6
2022-12-28T01:24:34.536Z,4.5
2022-12-28T01:25:34.378Z,5.0
2022-12-28T01:26:34.421Z,4.7
2022-12-28T01:27:34.009Z,5.4
2022-12-28T01:28:34.844Z,5.3
2022-12-28T01:29:34.465Z,5.1
2022-12-28T01:30:34.291Z,4.8
2022-12-28T01:32:33.936Z,4.9
2022-12-28T01:33:34.896Z,4.6
2022-12-28T01:34:34.437Z,4.8
2022-12-28T01:35:35.417Z,4.6
2022-12-28T01:36:34.122Z,5.4
2022-12-28T01:37:33.962Z,5.0
2022-12-28T01:38:35.332Z,4.7
2022-12-28T01:39:34.350Z,4.6
2022-12-28T01:40:34.225Z,4.9
2022-12-28T01:41:36.158Z,5.1
2022-12-28T01:42:37.571Z,5.4
2022-12-28T01:43:48.204Z,5.1
2022-12-28T01:44:38.539Z,5.1
2022-12-28T01:45:34.185Z,4.7
2022-12-28T01:46:44.828Z,4.9
2022-12-28T01:47:34.683Z,3.9
2022-12-28T01:48:35.600Z,5.1
2022-12-28T01:49:37.743Z,4.8
2022-12-28T01:50:34.059Z,5.2
2022-12-28T01:51:39.642Z,5.5
2022-12-28T01:52:39.098Z,4.8
2022-12-28T01:53:33.957Z,5.1
2022-12-28T01:54:38.823Z,5.0
2022-12-28T01:55:35.601Z,4.0
2022-12-28T01:56:34.783Z,5.3
2022-12-28T01:57:38.425Z,4.6
2022-12-28T01:58:35.719Z,4.6
2022-12-28T01:59:37.414Z,4.5
2022-12-28T02:00:34.772Z,5.1
2022-12-28T02:01:34.757Z,4.5
2022-12-28T02:02:35.148Z,4.9
2022-12-28T02:03:34.437Z,5.0
2022-12-28T02:04:34.050Z,4.9
2022-12-28T02:05:37.068Z,4.6
2022-12-28T02:06:34.075Z,4.4
2022-12-28T02:07:51.163Z,4.8
2022-12-28T02:08:42.166Z,5.1
2022-12-28T02:09:38.259Z,4.9
2022-12-28T02:10:44.457Z,4.3
2022-12-28T02:11:34.288Z,4.6
2022-12-28T02:12:34.710Z,4.9
2022-12-28T02:13:34.430Z,4.5
2022-12-28T02:14:34.668Z,4.0
2022-12-28T02:15:34.566Z,4.4
2022-12-28T02:16:33.959Z,4.9
2022-12-28T02:17:34.659Z,5.0
2022-12-28T02:18:34.405Z,3.8
2022-12-28T02:19:44.354Z,4.9
2022-12-28T02:20:41.673Z,5.0
2022-12-28T02:21:42.172Z,4.6
2022-12-28T02:22:51.174Z,4.7
2022-12-28T02:23:42.178Z,4.6
2022-12-28T02:24:39.536Z,4.7
2022-12-28T02:25:51.189Z,4.5
2022-12-28T02:26:52.112Z,4.8
2022-12-28T02:27:38.890Z,4.9
2022-12-28T02:28:48.134Z,4.1
2022-12-28T02:29:48.207Z,4.7
2022-12-28T02:30:41.559Z,4.6
2022-12-28T02:31:39.437Z,4.9
2022-12-28T02:32:41.647Z,5.0
2022-12-28T02:33:48.155Z,3.9
2022-12-28T02:34:41.563Z,5.1
2022-12-28T02:35:50.694Z,4.6
2022-12-28T02:36:38.003Z,4.7
2022-12-28T02:37:47.924Z,3.8
2022-12-28T02:38:41.710Z,4.5
2022-12-28T02:39:37.837Z,4.9
2022-12-28T02:40:37.211Z,4.3
2022-12-28T02:41:35.088Z,4.5
2022-12-28T02:42:35.423Z,4.4
2022-12-28T02:43:34.800Z,4.0
2022-12-28T02:44:34.906Z,3.5
2022-12-28T02:45:43.308Z,4.4
2022-12-28T02:46:34.127Z,4.9
2022-12-28T02:47:34.750Z,4.4
2022-12-28T02:48:40.968Z,3.3
2022-12-28T02:49:34.235Z,3.7
2022-12-28T02:50:38.929Z,5.2
2022-12-28T02:51:41.260Z,5.2
2022-12-28T02:52:51.184Z,4.1
2022-12-28T02:53:52.633Z,4.6
2022-12-28T02:54:38.999Z,4.4
2022-12-28T02:55:38.832Z,4.7
2022-12-28T02:56:39.621Z,4.3
2022-12-28T02:57:45.171Z,3.6
2022-12-28T02:58:44.674Z,2.7
2022-12-28T02:59:39.402Z,4.3
2022-12-28T03:00:47.686Z,5.3
2022-12-28T03:01:50.839Z,4.4
2022-12-28T03:02:57.225Z,4.1
2022-12-28T03:03:57.198Z,5.1
2022-12-28T03:04:42.146Z,4.7
2022-12-28T03:05:39.177Z,4.6
2022-12-28T03:06:44.670Z,4.2
2022-12-28T03:07:42.152Z,4.4
2022-12-28T03:08:51.140Z,3.8
2022-12-28T03:09:40.784Z,4.6
2022-12-28T03:10:39.018Z,4.6
2022-12-28T03:11:38.846Z,4.7
2022-12-28T03:12:38.197Z,5.1
2022-12-28T03:13:40.660Z,4.6
2022-12-28T03:14:39.171Z,4.5
2022-12-28T03:15:35.972Z,4.2
2022-12-28T03:16:35.339Z,4.8
2022-12-28T03:17:36.871Z,4.4
2022-12-28T03:18:35.131Z,3.9
2022-12-28T03:19:40.509Z,4.6
2022-12-28T03:20:34.026Z,4.2
2022-12-28T03:21:35.534Z,5.1
2022-12-28T03:22:37.228Z,4.3
2022-12-28T03:23:34.546Z,3.4
2022-12-28T03:24:36.180Z,4.6
2022-12-28T03:25:36.749Z,4.3
2022-12-28T03:26:35.782Z,4.0
2022-12-28T03:27:34.616Z,3.9
2022-12-28T03:28:37.152Z,4.1
2022-12-28T03:29:38.678Z,4.0
2022-12-28T03:30:35.617Z,4.3
2022-12-28T03:31:35.856Z,3.9
2022-12-28T03:32:34.156Z,3.7
2022-12-28T03:33:37.371Z,3.6
2022-12-28T03:34:34.061Z,4.1
2022-12-28T03:35:39.555Z,3.8
2022-12-28T03:36:42.146Z,4.2
2022-12-28T03:37:39.227Z,4.1
2022-12-28T03:38:39.077Z,4.4
2022-12-28T03:39:38.830Z,4.6
2022-12-28T03:40:42.173Z,4.1
2022-12-28T03:41:36.782Z,4.3
2022-12-28T03:42:39.163Z,4.6
2022-12-28T03:43:37.823Z,3.8
2022-12-28T03:44:34.091Z,4.3
2022-12-28T03:45:46.498Z,4.5
2022-12-28T03:46:39.381Z,4.9
2022-12-28T03:47:34.877Z,4.1
2022-12-28T03:48:34.871Z,3.9
2022-12-28T03:49:34.075Z,4.0
2022-12-28T03:50:35.961Z,4.6
2022-12-28T03:51:34.400Z,4.7
2022-12-28T03:52:34.262Z,4.3
2022-12-28T03:53:41.214Z,4.0
2022-12-28T03:54:34.740Z,4.6
2022-12-28T03:55:34.800Z,4.3
2022-12-28T03:56:39.212Z,4.2
2022-12-28T03:57:34.105Z,3.9
2022-12-28T03:58:34.089Z,2.9
2022-12-28T03:59:34.609Z,3.5
2022-12-28T04:00:34.497Z,4.1
2022-12-28T04:01:34.356Z,4.3
2022-12-28T04:02:34.417Z,4.7
2022-12-28T04:03:34.986Z,3.7
2022-12-28T04:04:34.604Z,3.9
2022-12-28T04:05:34.440Z,4.0
2022-12-28T04:06:34.359Z,3.8
2022-12-28T04:07:34.115Z,4.4
2022-12-28T04:08:34.824Z,3.8
2022-12-28T04:09:34.533Z,4.3
2022-12-28T04:10:34.329Z,3.7
2022-12-28T04:11:34.205Z,4.3
2022-12-28T04:12:34.012Z,3.8
2022-12-28T04:13:35.936Z,4.2
2022-12-28T04:14:34.473Z,4.1
2022-12-28T04:15:34.768Z,4.1
2022-12-28T04:16:34.585Z,4.4
2022-12-28T04:17:34.344Z,4.0
2022-12-28T04:18:34.198Z,3.7
2022-12-28T04:19:34.084Z,3.8
2022-12-28T04:20:34.700Z,4.0
2022-12-28T04:21:34.475Z,3.6
2022-12-28T04:22:34.307Z,4.1
2022-12-28T04:23:34.374Z,3.5
2022-12-28T04:24:34.054Z,4.0
2022-12-28T04:25:34.652Z,4.7
2022-12-28T04:26:34.548Z,3.7
2022-12-28T04:27:34.292Z,3.3
2022-12-28T04:28:34.355Z,4.0
2022-12-28T04:29:33.928Z,4.2
2022-12-28T04:30:34.574Z,4.3
2022-12-28T04:31:34.430Z,4.3
2022-12-28T04:32:34.273Z,3.4
2022-12-28T04:33:35.192Z,4.3
2022-12-28T04:34:34.831Z,4.6
2022-12-28T04:35:34.564Z,4.3
2022-12-28T04:36:34.388Z,5.2
2022-12-28T04:37:36.838Z,4.4
2022-12-28T04:38:34.958Z,3.5
2022-12-28T04:39:55.824Z,4.3
2022-12-28T04:40:34.135Z,4.1
2022-12-28T04:41:34.213Z,3.9
2022-12-28T04:42:34.529Z,3.5
2022-12-28T04:43:34.646Z,3.5
2022-12-28T04:44:34.251Z,3.9
2022-12-28T04:45:34.060Z,3.6
2022-12-28T04:46:34.761Z,3.6
2022-12-28T04:47:34.553Z,4.4
2022-12-28T04:48:34.388Z,4.1
2022-12-28T04:49:34.871Z,4.3
2022-12-28T04:50:35.288Z,3.5
2022-12-28T04:51:34.270Z,3.9
2022-12-28T04:52:34.026Z,3.9
2022-12-28T04:53:37.831Z,3.3
2022-12-28T04:54:34.579Z,4.6
2022-12-28T04:55:34.372Z,3.9
2022-12-28T04:56:34.143Z,4.0
2022-12-28T04:57:33.984Z,4.1
2022-12-28T04:58:35.267Z,3.7
2022-12-28T04:59:34.583Z,3.6
2022-12-28T05:00:34.506Z,3.5
2022-12-28T05:01:34.254Z,3.9
2022-12-28T05:02:34.074Z,3.6
2022-12-28T05:03:34.970Z,4.2
2022-12-28T05:04:34.402Z,3.3
2022-12-28T05:05:35.863Z,3.9
2022-12-28T05:06:34.024Z,4.0
2022-12-28T05:07:34.765Z,3.9
2022-12-28T05:08:34.797Z,4.0
2022-12-28T05:09:34.453Z,4.4
2022-12-28T05:10:34.715Z,4.1
2022-12-28T05:11:34.071Z,4.5
2022-12-28T05:12:34.720Z,4.3
2022-12-28T05:13:34.531Z,3.4
2022-12-28T05:14:37.225Z,4.5
2022-12-28T05:15:34.152Z,3.2
2022-12-28T05:16:34.014Z,4.2
2022-12-28T05:17:34.768Z,4.1
2022-12-28T05:18:34.943Z,4.0
2022-12-28T05:19:34.296Z,3.8
2022-12-28T05:20:34.107Z,4.0
2022-12-28T05:21:34.002Z,4.2
2022-12-28T05:22:40.495Z,3.5
2022-12-28T05:23:35.421Z,4.1
2022-12-28T05:24:34.212Z,3.4
2022-12-28T05:25:34.037Z,4.2
2022-12-28T05:26:33.914Z,4.1
2022-12-28T05:27:34.615Z,3.4
2022-12-28T05:28:34.446Z,3.7
2022-12-28T05:29:34.241Z,3.2
2022-12-28T05:30:34.069Z,4.4
2022-12-28T05:31:34.368Z,3.5
2022-12-28T05:32:34.096Z,3.7
2022-12-28T05:33:34.657Z,3.5
2022-12-28T05:34:34.575Z,4.0
2022-12-28T05:35:34.613Z,4.0
2022-12-28T05:36:34.269Z,3.6
2022-12-28T05:37:34.028Z,3.5
2022-12-28T05:38:34.810Z,4.5
2022-12-28T05:39:34.579Z,3.9
2022-12-28T05:40:34.397Z,3.1
2022-12-28T05:41:34.257Z,4.1
2022-12-28T05:42:34.835Z,4.0
2022-12-28T05:43:34.799Z,3.9
2022-12-28T05:44:33.977Z,3.8
2022-12-28T05:45:34.703Z,4.2
2022-12-28T05:46:34.678Z,3.6
2022-12-28T05:47:34.297Z,4.4
2022-12-28T05:48:35.191Z,4.0
2022-12-28T05:49:33.940Z,4.3
2022-12-28T05:50:34.632Z,4.2
2022-12-28T05:51:34.695Z,4.5
2022-12-28T05:52:34.344Z,3.8
2022-12-28T05:53:34.536Z,4.0
2022-12-28T05:54:33.930Z,4.6
2022-12-28T05:55:34.606Z,5.0
2022-12-28T05:56:33.975Z,4.0
2022-12-28T05:57:34.725Z,4.4
2022-12-28T05:58:34.436Z,5.1
2022-12-28T05:59:34.300Z,3.8
2022-12-28T06:00:34.069Z,4.2
2022-12-28T06:01:35.520Z,4.3
2022-12-28T06:02:34.769Z,3.7
2022-12-28T06:03:34.882Z,4.1
2022-12-28T06:04:34.270Z,4.2
2022-12-28T06:05:34.065Z,3.7
2022-12-28T06:06:35.027Z,4.2
2022-12-28T06:07:34.588Z,3.4
2022-12-28T06:08:34.264Z,8.2
2022-12-28T06:09:34.163Z,12.8
2022-12-28T06:10:33.939Z,14.9
2022-12-28T06:11:33.910Z,14.4
2022-12-28T06:12:34.101Z,13.5
2022-12-28T06:13:34.502Z,13.4
2022-12-28T06:14:33.896Z,14.4
2022-12-28T06:15:34.968Z,11.5
2022-12-28T06:16:35.885Z,11.6
2022-12-28T06:17:34.371Z,12.6
2022-12-28T06:18:34.994Z,14.2
2022-12-28T06:19:34.623Z,14.2
2022-12-28T06:20:34.680Z,13.5
2022-12-28T06:21:34.973Z,13.5
2022-12-28T06:22:34.686Z,12.4
2022-12-28T06:23:34.090Z,12.8
2022-12-28T06:24:34.758Z,12.5
2022-12-28T06:25:34.043Z,11.5
2022-12-28T06:26:35.290Z,11.9
2022-12-28T06:27:34.227Z,11.7
2022-12-28T06:28:36.800Z,11.6
2022-12-28T06:29:34.851Z,11.6
2022-12-28T06:30:34.507Z,11.0
2022-12-28T06:31:35.338Z,10.7
2022-12-28T06:32:34.617Z,10.0
2022-12-28T06:33:34.500Z,11.0
2022-12-28T06:34:34.678Z,10.7
2022-12-28T06:35:34.477Z,10.7
2022-12-28T06:36:35.848Z,10.0
2022-12-28T06:37:34.133Z,9.6
2022-12-28T06:38:34.451Z,10.9
2022-12-28T06:39:34.248Z,10.4
2022-12-28T06:41:11.108Z,10.2
2022-12-28T06:41:34.563Z,9.2
2022-12-28T06:42:34.460Z,9.0
2022-12-28T06:43:35.544Z,9.8
2022-12-28T06:44:37.915Z,9.1
2022-12-28T06:45:34.021Z,9.5
2022-12-28T06:46:34.787Z,9.0
2022-12-28T06:47:34.433Z,8.7
2022-12-28T06:48:34.513Z,8.6
2022-12-28T06:49:34.212Z,9.5
2022-12-28T06:50:39.948Z,8.8
2022-12-28T06:51:35.575Z,9.0
2022-12-28T06:52:34.365Z,8.0
2022-12-28T06:53:35.900Z,9.8
2022-12-28T06:54:34.578Z,9.8
2022-12-28T06:55:34.275Z,8.6
2022-12-28T06:56:34.379Z,8.9
2022-12-28T06:57:33.951Z,8.2
2022-12-28T06:58:33.981Z,8.4
2022-12-28T06:59:34.429Z,8.6
2022-12-28T07:00:34.280Z,8.3
2022-12-28T07:01:38.613Z,8.2
2022-12-28T07:02:34.516Z,8.6
2022-12-28T07:03:34.686Z,8.1
2022-12-28T07:04:34.334Z,7.8
2022-12-28T07:05:34.231Z,7.8
2022-12-28T07:06:36.116Z,7.9
2022-12-28T07:07:34.301Z,7.7
2022-12-28T07:08:34.563Z,8.5
2022-12-28T07:09:34.364Z,7.9
2022-12-28T07:10:34.283Z,7.9
2022-12-28T07:11:34.367Z,8.4
2022-12-28T07:12:34.679Z,7.7
2022-12-28T07:13:34.547Z,7.8
2022-12-28T07:14:34.311Z,8.0
2022-12-28T07:15:39.920Z,8.3
2022-12-28T07:17:34.140Z,7.4
2022-12-28T07:18:33.962Z,7.8
2022-12-28T07:19:34.249Z,8.6
2022-12-28T07:20:40.125Z,7.8
2022-12-28T07:21:35.144Z,7.6
2022-12-28T07:22:34.633Z,7.9
2022-12-28T07:23:34.111Z,7.9
2022-12-28T07:24:34.789Z,8.0
2022-12-28T07:25:34.628Z,8.0
2022-12-28T07:26:35.562Z,7.0
2022-12-28T07:27:35.001Z,6.6
2022-12-28T07:28:35.564Z,8.3
2022-12-28T07:29:34.247Z,7.6
2022-12-28T07:30:34.516Z,7.4
2022-12-28T07:31:41.628Z,7.8
2022-12-28T07:32:37.031Z,7.7
2022-12-28T07:33:34.669Z,7.5
2022-12-28T07:34:34.744Z,7.4
2022-12-28T07:35:34.748Z,7.9
2022-12-28T07:36:34.414Z,7.9
2022-12-28T07:37:34.137Z,7.1
2022-12-28T07:38:34.316Z,7.5
2022-12-28T07:39:34.221Z,7.4
2022-12-28T07:40:34.023Z,7.6
2022-12-28T07:41:34.318Z,7.4
2022-12-28T07:42:34.166Z,7.4
2022-12-28T07:43:34.496Z,7.6
2022-12-28T07:44:38.022Z,6.9
2022-12-28T07:45:33.986Z,7.1
2022-12-28T07:46:35.763Z,7.1
2022-12-28T07:47:34.567Z,6.8
2022-12-28T07:48:35.536Z,7.8
2022-12-28T07:49:34.192Z,7.2
2022-12-28T07:50:37.830Z,6.9
2022-12-28T07:51:35.919Z,7.6
2022-12-28T07:52:34.957Z,6.5
2022-12-28T07:53:34.320Z,8.0
2022-12-28T07:54:34.230Z,6.5
2022-12-28T07:55:34.026Z,7.3
2022-12-28T07:57:34.078Z,7.4
2022-12-28T07:58:34.762Z,7.3
2022-12-28T07:59:34.695Z,6.1
2022-12-28T08:00:33.960Z,7.9
2022-12-28T08:01:35.970Z,7.3
2022-12-28T08:02:34.523Z,6.9
2022-12-28T08:03:34.740Z,7.5
2022-12-28T08:04:34.136Z,7.3
2022-12-28T08:05:33.977Z,6.6
2022-12-28T08:06:35.972Z,6.2
2022-12-28T08:07:34.443Z,6.8
2022-12-28T08:08:35.247Z,5.6
2022-12-28T08:09:34.095Z,6.1
2022-12-28T08:10:33.932Z,6.4
2022-12-28T08:11:35.929Z,6.9
2022-12-28T08:12:34.507Z,6.6
2022-12-28T08:13:37.116Z,7.0
2022-12-28T08:14:34.006Z,6.8
2022-12-28T08:15:34.764Z,7.3
2022-12-28T08:16:35.931Z,6.8
2022-12-28T08:17:33.936Z,7.3
2022-12-28T08:18:34.311Z,6.6
2022-12-28T08:19:34.066Z,6.6
2022-12-28T08:20:34.200Z,7.0
2022-12-28T08:21:38.067Z,7.0
2022-12-28T08:22:34.769Z,6.6
2022-12-28T08:23:34.714Z,7.0
2022-12-28T08:24:34.474Z,7.4
2022-12-28T08:25:34.314Z,7.1
2022-12-28T08:26:38.157Z,7.2
2022-12-28T08:27:38.439Z,7.0
2022-12-28T08:28:34.307Z,5.8
2022-12-28T08:29:34.354Z,6.6
2022-12-28T08:30:34.578Z,6.5
2022-12-28T08:31:36.291Z,6.9
2022-12-28T08:32:34.219Z,6.1
2022-12-28T08:33:34.151Z,6.1
2022-12-28T08:34:34.794Z,7.2
2022-12-28T08:35:34.570Z,6.9
2022-12-28T08:36:33.960Z,7.1
2022-12-28T08:37:34.655Z,6.5
2022-12-28T08:38:35.304Z,6.5
2022-12-28T08:39:34.285Z,6.4
2022-12-28T08:40:34.103Z,6.9
2022-12-28T08:41:33.900Z,6.6
2022-12-28T08:42:34.661Z,6.3
2022-12-28T08:43:34.523Z,5.8
2022-12-28T08:44:34.754Z,7.4
2022-12-28T08:45:34.542Z,6.3
2022-12-28T08:46:34.974Z,6.1
2022-12-28T08:47:34.006Z,7.0
2022-12-28T08:48:34.332Z,6.7
2022-12-28T08:49:34.691Z,6.2
2022-12-28T08:50:34.486Z,7.5
2022-12-28T08:51:39.042Z,6.6
2022-12-28T08:52:34.103Z,6.0
2022-12-28T08:53:34.070Z,6.7
2022-12-28T08:54:34.653Z,6.3
2022-12-28T08:55:34.451Z,6.6
2022-12-28T08:56:35.861Z,5.7
2022-12-28T08:57:34.070Z,6.9
2022-12-28T08:58:35.220Z,7.0
2022-12-28T08:59:34.660Z,6.5
2022-12-28T09:00:34.512Z,5.7
2022-12-28T09:01:42.479Z,6.6
2022-12-28T09:02:34.454Z,6.3
2022-12-28T09:03:34.749Z,6.4
2022-12-28T09:04:34.608Z,6.6
2022-12-28T09:05:39.815Z,6.4
2022-12-28T09:06:35.730Z,6.5
2022-12-28T09:07:34.119Z,6.6
2022-12-28T09:08:35.046Z,5.6
2022-12-28T09:09:34.671Z,6.2
2022-12-28T09:10:34.702Z,6.0
2022-12-28T09:11:34.518Z,6.5
2022-12-28T09:12:34.071Z,5.8
2022-12-28T09:13:34.458Z,6.1
2022-12-28T09:14:34.576Z,6.7
2022-12-28T09:15:34.828Z,6.9
2022-12-28T09:16:35.285Z,6.3
2022-12-28T09:17:34.493Z,5.9
2022-12-28T09:18:34.661Z,5.7
2022-12-28T09:19:34.124Z,6.3
2022-12-28T09:20:34.101Z,6.6
2022-12-28T09:21:35.562Z,5.9
2022-12-28T09:22:34.467Z,6.0
2022-12-28T09:23:34.747Z,6.1
2022-12-28T09:24:34.119Z,6.1
2022-12-28T09:25:33.970Z,6.0
2022-12-28T09:26:35.768Z,6.1
2022-12-28T09:27:34.441Z,6.4
2022-12-28T09:28:34.376Z,6.4
2022-12-28T09:29:34.103Z,6.1
2022-12-28T09:30:33.908Z,5.9
2022-12-28T09:31:35.079Z,6.4
2022-12-28T09:32:33.989Z,5.9
2022-12-28T09:33:50.832Z,5.8
2022-12-28T09:34:36.766Z,6.9
2022-12-28T09:35:34.866Z,6.4
2022-12-28T09:36:35.861Z,6.2
2022-12-28T09:37:34.438Z,5.9
2022-12-28T09:38:34.291Z,6.1
2022-12-28T09:39:34.219Z,6.4
2022-12-28T09:40:34.613Z,5.7
2022-12-28T09:41:43.236Z,5.8
2022-12-28T09:42:37.188Z,6.5
2022-12-28T09:43:34.184Z,6.3
2022-12-28T09:44:38.935Z,6.0
2022-12-28T09:45:35.091Z,6.1
2022-12-28T09:46:35.658Z,6.2
2022-12-28T09:47:39.011Z,6.0
2022-12-28T09:48:35.193Z,5.6
2022-12-28T09:49:45.906Z,5.2
2022-12-28T09:50:34.843Z,6.3
2022-12-28T09:51:37.436Z,5.9
2022-12-28T09:52:40.543Z,5.5
2022-12-28T09:53:34.619Z,6.4
2022-12-28T09:54:34.478Z,5.8
2022-12-28T09:55:38.963Z,5.7
2022-12-28T09:56:35.841Z,5.6
2022-12-28T09:57:36.528Z,5.6
2022-12-28T09:58:38.460Z,4.9
2022-12-28T09:59:35.295Z,5.6
2022-12-28T10:00:40.544Z,5.5
2022-12-28T10:01:35.228Z,5.7
2022-12-28T10:02:37.592Z,5.5
2022-12-28T10:03:35.813Z,6.2
2022-12-28T10:04:34.436Z,6.1
2022-12-28T10:05:34.282Z,6.0
2022-12-28T10:06:34.074Z,6.2
2022-12-28T10:07:35.721Z,5.4
2022-12-28T10:08:37.895Z,6.1
2022-12-28T10:09:34.442Z,5.4
2022-12-28T10:10:34.251Z,5.6
2022-12-28T10:11:37.739Z,6.1
2022-12-28T10:12:34.233Z,5.3
2022-12-28T10:13:54.068Z,5.3
2022-12-28T10:14:34.827Z,5.2
2022-12-28T10:15:34.336Z,7.0
2022-12-28T10:16:34.192Z,5.4
2022-12-28T10:17:34.833Z,6.2
2022-12-28T10:18:39.343Z,6.1
2022-12-28T10:19:34.464Z,5.2
2022-12-28T10:20:34.294Z,6.2
2022-12-28T10:21:34.510Z,5.9
2022-12-28T10:22:37.948Z,5.8
2022-12-28T10:23:38.261Z,5.6
2022-12-28T10:24:34.309Z,5.4
2022-12-28T10:25:34.655Z,5.8
2022-12-28T10:26:34.607Z,5.7
2022-12-28T10:27:34.701Z,6.8
2022-12-28T10:28:42.991Z,5.0
2022-12-28T10:29:34.440Z,5.9
2022-12-28T10:30:39.101Z,5.7
2022-12-28T10:31:35.662Z,6.7
2022-12-28T10:32:50.917Z,5.2
2022-12-28T10:33:38.986Z,6.4
2022-12-28T10:34:35.340Z,5.9
2022-12-28T10:35:41.295Z,5.3
2022-12-28T10:36:34.507Z,5.4
2022-12-28T10:37:35.935Z,6.0
2022-12-28T10:38:34.691Z,5.7
2022-12-28T10:39:34.751Z,5.6
2022-12-28T10:40:36.065Z,5.2
2022-12-28T10:41:37.265Z,5.3
2022-12-28T10:42:37.422Z,6.0
2022-12-28T10:43:35.105Z,5.8
2022-12-28T10:44:40.632Z,6.3
2022-12-28T10:45:39.281Z,4.8
2022-12-28T10:46:34.178Z,6.0
2022-12-28T10:47:39.576Z,5.4
2022-12-28T10:48:37.388Z,6.2
2022-12-28T10:49:35.729Z,5.7
2022-12-28T10:50:38.718Z,5.8
2022-12-28T10:51:35.144Z,4.8
2022-12-28T10:52:34.640Z,5.5
2022-12-28T10:53:44.911Z,6.2
2022-12-28T10:54:35.800Z,6.1
2022-12-28T10:55:34.585Z,5.5
2022-12-28T10:56:39.296Z,5.4
2022-12-28T10:57:37.788Z,6.0
2022-12-28T10:58:34.506Z,5.9
2022-12-28T10:59:34.649Z,5.3
2022-12-28T11:00:34.532Z,5.3
2022-12-28T11:01:34.473Z,5.1
2022-12-28T11:02:34.269Z,6.0
2022-12-28T11:03:36.264Z,5.1
2022-12-28T11:04:34.121Z,6.4
2022-12-28T11:05:33.987Z,6.0
2022-12-28T11:06:35.874Z,5.4
2022-12-28T11:07:35.705Z,6.0
2022-12-28T11:08:34.004Z,5.9
2022-12-28T11:09:34.682Z,5.6
2022-12-28T11:10:34.053Z,6.0
2022-12-28T11:11:34.684Z,5.7
2022-12-28T11:12:39.361Z,5.1
2022-12-28T11:13:36.006Z,5.6
2022-12-28T11:14:35.475Z,5.4
2022-12-28T11:15:34.379Z,5.7
2022-12-28T11:16:35.633Z,5.3
2022-12-28T11:17:34.347Z,5.2
2022-12-28T11:18:37.818Z,6.2
2022-12-28T11:19:34.425Z,5.1
2022-12-28T11:20:35.915Z,5.4
2022-12-28T11:21:35.112Z,5.8
2022-12-28T11:22:34.157Z,6.1
2022-12-28T11:23:34.780Z,5.4
2022-12-28T11:24:39.317Z,5.2
2022-12-28T11:25:34.767Z,5.7
2022-12-28T11:26:34.342Z,5.6
2022-12-28T11:27:35.113Z,5.8
2022-12-28T11:28:34.706Z,4.9
2022-12-28T11:29:34.419Z,5.1
2022-12-28T11:30:34.229Z,5.3
2022-12-28T11:31:36.711Z,5.6
2022-12-28T11:32:40.597Z,5.4
2022-12-28T11:33:44.613Z,5.5
2022-12-28T11:34:34.220Z,5.5
2022-12-28T11:35:37.089Z,4.9
2022-12-28T11:36:38.626Z,5.3
2022-12-28T11:37:34.268Z,6.0
2022-12-28T11:38:41.594Z,5.5
2022-12-28T11:39:39.197Z,4.5
2022-12-28T11:40:46.829Z,5.0
2022-12-28T11:41:40.496Z,5.3
2022-12-28T11:42:40.804Z,5.7
2022-12-28T11:43:38.224Z,5.1
2022-12-28T11:44:39.331Z,5.1
2022-12-28T11:45:53.444Z,4.6
2022-12-28T11:46:37.562Z,5.1
2022-12-28T11:47:34.720Z,4.8
2022-12-28T11:48:45.110Z,5.2
2022-12-28T11:49:34.895Z,5.7
2022-12-28T11:50:40.511Z,6.1
2022-12-28T11:51:35.249Z,4.9
2022-12-28T11:52:39.157Z,6.2
2022-12-28T11:53:38.938Z,6.2
2022-12-28T11:54:38.603Z,5.1
2022-12-28T11:55:44.579Z,4.9
2022-12-28T11:56:48.085Z,5.1
2022-12-28T11:57:38.775Z,5.0
2022-12-28T11:58:44.715Z,5.0
2022-12-28T11:59:34.734Z,5.2
2022-12-28T12:00:41.661Z,5.9
2022-12-28T12:01:39.837Z,5.6
2022-12-28T12:02:38.737Z,5.5
2022-12-28T12:03:52.535Z,6.4
2022-12-28T12:04:38.981Z,5.3
2022-12-28T12:05:39.325Z,5.5
2022-12-28T12:06:48.123Z,5.4
2022-12-28T12:07:47.461Z,5.8
2022-12-28T12:08:37.611Z,4.6
2022-12-28T12:09:39.457Z,5.8
2022-12-28T12:10:34.886Z,6.1
2022-12-28T12:11:39.002Z,5.4
2022-12-28T12:12:35.194Z,5.1
2022-12-28T12:13:39.858Z,4.8
2022-12-28T12:14:39.451Z,4.5
2022-12-28T12:15:39.042Z,5.2
2022-12-28T12:16:51.195Z,6.2
2022-12-28T12:17:51.262Z,5.0
2022-12-28T12:18:39.628Z,5.3
2022-12-28T12:19:36.480Z,5.1
2022-12-28T12:20:48.122Z,5.0
2022-12-28T12:21:36.501Z,4.5
2022-12-28T12:22:38.874Z,4.5
2022-12-28T12:23:42.632Z,5.8
2022-12-28T12:24:36.922Z,5.5
2022-12-28T12:25:38.710Z,4.9
2022-12-28T12:26:39.485Z,4.9
2022-12-28T12:27:38.137Z,4.8
2022-12-28T12:28:37.052Z,4.8
2022-12-28T12:29:36.951Z,5.0
2022-12-28T12:30:34.567Z,5.3
2022-12-28T12:31:40.485Z,7.1
2022-12-28T12:32:44.552Z,6.1
2022-12-28T12:33:35.176Z,5.6
2022-12-28T12:34:48.759Z,5.4
2022-12-28T12:35:39.845Z,5.5
2022-12-28T12:36:42.085Z,5.7
2022-12-28T12:37:52.520Z,6.7
2022-12-28T12:38:42.143Z,7.1
2022-12-28T12:39:48.099Z,8.6
2022-12-28T12:40:53.497Z,8.5
2022-12-28T12:41:44.622Z,8.7
2022-12-28T12:42:52.068Z,8.6
2022-12-28T12:43:52.036Z,8.4
2022-12-28T12:44:38.949Z,8.7
2022-12-28T12:45:45.154Z,7.0
2022-12-28T12:46:52.591Z,6.5
2022-12-28T12:47:45.069Z,6.0
2022-12-28T12:48:41.578Z,6.9
2022-12-28T12:49:41.638Z,7.0
2022-12-28T12:50:57.080Z,5.8
2022-12-28T12:51:42.099Z,6.5
2022-12-28T12:52:42.012Z,6.2
2022-12-28T12:53:53.619Z,7.3
2022-12-28T12:54:41.672Z,6.6
2022-12-28T12:55:57.087Z,7.0
2022-12-28T12:56:41.573Z,6.1
2022-12-28T12:57:53.044Z,5.7
2022-12-28T12:58:52.569Z,5.8
2022-12-28T12:59:51.122Z,5.5
2022-12-28T13:00:52.071Z,5.8
2022-12-28T13:01:52.690Z,5.9
2022-12-28T13:02:42.361Z,6.0
2022-12-28T13:03:38.947Z,5.9
2022-12-28T13:04:34.510Z,6.8
2022-12-28T13:05:36.375Z,5.8
2022-12-28T13:06:35.891Z,5.4
2022-12-28T13:07:34.293Z,6.0
2022-12-28T13:08:40.024Z,5.9
2022-12-28T13:09:35.002Z,6.4
2022-12-28T13:10:35.635Z,5.9
2022-12-28T13:11:37.718Z,6.8
2022-12-28T13:12:35.203Z,6.2
2022-12-28T13:13:35.322Z,5.8
2022-12-28T13:14:34.885Z,6.6
2022-12-28T13:15:35.426Z,5.9
2022-12-28T13:16:34.553Z,6.1
2022-12-28T13:17:34.265Z,5.8
2022-12-28T13:18:45.771Z,7.2
2022-12-28T13:19:34.702Z,6.3
2022-12-28T13:20:34.171Z,6.4
2022-12-28T13:21:40.965Z,6.2
2022-12-28T13:22:34.604Z,6.1
2022-12-28T13:23:39.293Z,6.2
2022-12-28T13:24:35.269Z,5.7
2022-12-28T13:25:34.503Z,6.1
2022-12-28T13:26:34.418Z,4.8
2022-12-28T13:27:34.531Z,5.8
2022-12-28T13:28:35.675Z,5.7
2022-12-28T13:29:37.238Z,5.5
2022-12-28T13:30:34.087Z,5.6
2022-12-28T13:31:36.881Z,6.8
2022-12-28T13:32:38.332Z,5.4
2022-12-28T13:33:34.442Z,5.5
2022-12-28T13:34:35.100Z,5.6
2022-12-28T13:35:34.212Z,5.0
2022-12-28T13:36:34.996Z,5.9
2022-12-28T13:37:34.160Z,6.5
2022-12-28T13:38:34.676Z,6.0
2022-12-28T13:39:40.047Z,5.5
2022-12-28T13:40:34.716Z,5.6
2022-12-28T13:41:36.128Z,6.4
2022-12-28T13:42:39.374Z,5.4
2022-12-28T13:43:41.694Z,6.1
2022-12-28T13:44:45.113Z,5.2
2022-12-28T13:45:34.685Z,5.6
2022-12-28T13:46:36.089Z,6.0
2022-12-28T13:47:42.527Z,5.9